Hiroshima, Japan
Current Conditions -  °F | °C
As of 11:55 AM on Tuesday 23 Dec 2014 (Local Time) from RJOI Reporting Station
Broken Clouds Broken Clouds  
Wind Chill: 46°   Ceiling: 23000
Heat Index: 49°   Visibility: 6mi
Dew Point: 32°   Wind: 7mph
Humidity: 52%   Direction: 110°ESE
Pressure: 30.29"   Gusts: NA
Location:  34.39°N, 132.44°E
Report Text: RJOI 230255Z 11006KT 9999 FEW030 BKN230 09/00 A3029 RMK SLP255 T00940000 58010
Loading
Personal Weather Stations






























Interactive Weather Map New forecast layout! Learn more

10-Day Weather Forecast

Advertisements
Track Severe Weather on mobile